Time;durP1;ratioP1;P1;durP2;ratioP2;P2;SDS_P1;SDS_P2;PMS_P1;PMS_P2;Temp;Humidity;BMP_temperature;BMP_pressure;BME280_temperature;BME280_humidity;BME280_pressure;Samples;Min_cycle;Max_cycle;Signal;HPM_P1;HPM_P2
2023/08/13 00:02:00;;;;;;;;;;;;;;;16.77;100.00;101645.31;4997272;28;19952;-77
2023/08/13 00:04:25;;;;;;;;;;;;;;;16.69;100.00;101640.59;4996357;28;20690;-76
2023/08/13 00:06:51;;;;;;;;;;;;;;;16.59;100.00;101654.16;4995611;28;19956;-76
2023/08/13 00:09:16;;;;;;;;;;;;;;;16.53;100.00;101651.16;4987891;28;19921;-77
2023/08/13 00:11:41;;;;;;;;;;;;;;;16.44;100.00;101652.81;4975908;28;20605;-78
2023/08/13 00:14:06;;;;;;;;;;;;;;;16.31;100.00;101656.63;4993801;28;19967;-77
2023/08/13 00:16:32;;;;;;;;;;;;;;;16.39;100.00;101655.09;4989123;28;19957;-79
2023/08/13 00:18:57;;;;;;;;;;;;;;;16.36;100.00;101647.25;4991661;28;20521;-78
2023/08/13 00:21:22;;;;;;;;;;;;;;;16.25;100.00;101653.63;4993432;28;20008;-77
2023/08/13 00:23:48;;;;;;;;;;;;;;;16.16;100.00;101652.56;4991866;28;20747;-77
2023/08/13 00:26:13;;;;;;;;;;;;;;;15.91;100.00;101649.31;4993893;28;19932;-75
2023/08/13 00:28:39;;;;;;;;;;;;;;;15.69;100.00;101645.75;4989641;28;19925;-76
2023/08/13 00:31:04;;;;;;;;;;;;;;;15.57;100.00;101646.84;4983373;28;19925;-75
2023/08/13 00:33:30;;;;;;;;;;;;;;;15.47;100.00;101649.50;4996830;28;19921;-77
2023/08/13 00:35:55;;;;;;;;;;;;;;;15.34;100.00;101655.09;4996502;28;19929;-75
2023/08/13 00:38:20;;;;;;;;;;;;;;;15.26;100.00;101657.59;4987981;28;20341;-76
2023/08/13 00:40:45;;;;;;;;;;;;;;;15.22;100.00;101650.72;4997656;28;20427;-77
2023/08/13 00:43:11;;;;;;;;;;;;;;;15.18;100.00;101651.97;4992125;28;20431;-78
2023/08/13 00:45:36;;;;;;;;;;;;;;;15.11;100.00;101657.88;4992076;28;19933;-76
2023/08/13 00:48:01;;;;;;;;;;;;;;;15.15;100.00;101653.09;4995198;28;19925;-78
2023/08/13 00:50:27;;;;;;;;;;;;;;;15.14;100.00;101657.63;4996721;28;20364;-76
2023/08/13 00:52:52;;;;;;;;;;;;;;;15.14;100.00;101654.91;4992550;28;19917;-76
2023/08/13 00:55:17;;;;;;;;;;;;;;;15.19;100.00;101654.56;4992506;28;19928;-77
2023/08/13 00:57:43;;;;;;;;;;;;;;;15.22;100.00;101656.13;4980489;28;19965;-78
2023/08/13 01:00:10;;;;;;;;;;;;;;;15.11;100.00;101659.75;4987654;28;19925;-76
2023/08/13 01:02:35;;;;;;;;;;;;;;;15.18;100.00;101663.66;4991663;28;19930;-76
2023/08/13 01:05:00;;;;;;;;;;;;;;;15.22;100.00;101653.41;4993381;28;20994;-75
2023/08/13 01:07:29;;;;;;;;;;;;;;;15.17;100.00;101656.53;4980004;28;19921;-78
2023/08/13 01:10:08;;;;;;;;;;;;;;;15.24;100.00;101656.84;4977193;28;20055;-76
2023/08/13 01:12:37;;;;;;;;;;;;;;;15.13;100.00;101649.66;4963052;28;19945;-76
2023/08/13 01:15:07;;;;;;;;;;;;;;;15.06;100.00;101657.44;4977671;28;19932;-75
2023/08/13 01:17:33;;;;;;;;;;;;;;;15.10;100.00;101652.63;4977521;28;20381;-76
2023/08/13 01:19:59;;;;;;;;;;;;;;;15.06;100.00;101640.34;4992396;28;19969;-75
2023/08/13 01:22:26;;;;;;;;;;;;;;;15.01;100.00;101648.84;4994552;28;20648;-76
2023/08/13 01:24:51;;;;;;;;;;;;;;;14.96;100.00;101643.81;4981830;28;20384;-76
2023/08/13 01:27:23;;;;;;;;;;;;;;;14.95;100.00;101646.66;4990987;28;20015;-77
2023/08/13 01:29:52;;;;;;;;;;;;;;;14.93;100.00;101641.38;4978910;28;19924;-76
2023/08/13 01:32:17;;;;;;;;;;;;;;;14.97;100.00;101642.81;4990568;28;19926;-75
2023/08/13 01:34:42;;;;;;;;;;;;;;;15.00;100.00;101639.84;4992870;28;19917;-76
2023/08/13 01:37:08;;;;;;;;;;;;;;;15.03;100.00;101637.88;4980295;28;19925;-75
2023/08/13 01:39:33;;;;;;;;;;;;;;;14.99;100.00;101653.53;4992464;28;20416;-75
2023/08/13 01:41:58;;;;;;;;;;;;;;;14.93;100.00;101649.50;4989290;28;19925;-75
2023/08/13 01:44:24;;;;;;;;;;;;;;;14.93;100.00;101654.91;4993460;28;19917;-75
2023/08/13 01:46:49;;;;;;;;;;;;;;;14.85;100.00;101657.38;4993706;28;19921;-75
2023/08/13 01:49:14;;;;;;;;;;;;;;;14.87;100.00;101663.50;4988082;28;19922;-75
2023/08/13 01:51:39;;;;;;;;;;;;;;;14.89;100.00;101664.25;4994219;28;19990;-75
2023/08/13 01:54:05;;;;;;;;;;;;;;;14.91;100.00;101667.69;4974722;28;19925;-75
2023/08/13 01:56:30;;;;;;;;;;;;;;;14.83;100.00;101664.75;4988546;28;19929;-75
2023/08/13 01:58:55;;;;;;;;;;;;;;;14.79;100.00;101661.47;4994166;28;20016;-76
2023/08/13 02:01:20;;;;;;;;;;;;;;;14.71;100.00;101661.22;4975898;28;19980;-76
2023/08/13 02:03:45;;;;;;;;;;;;;;;14.61;100.00;101665.63;4977779;28;20016;-76
2023/08/13 02:06:11;;;;;;;;;;;;;;;14.66;100.00;101669.69;4996643;28;19925;-75
2023/08/13 02:08:36;;;;;;;;;;;;;;;14.69;100.00;101665.91;4991550;28;19967;-75
2023/08/13 02:11:01;;;;;;;;;;;;;;;14.65;100.00;101673.38;4991247;28;20101;-76
2023/08/13 02:13:26;;;;;;;;;;;;;;;14.71;100.00;101666.63;4986959;28;19922;-78
2023/08/13 02:15:51;;;;;;;;;;;;;;;14.69;100.00;101658.66;4993050;28;19922;-76
2023/08/13 02:18:17;;;;;;;;;;;;;;;14.65;100.00;101657.16;4996279;28;20011;-75
2023/08/13 02:20:42;;;;;;;;;;;;;;;14.62;100.00;101665.50;4992436;28;20263;-75
2023/08/13 02:23:07;;;;;;;;;;;;;;;14.58;100.00;101661.34;4975595;28;19917;-75
2023/08/13 02:25:32;;;;;;;;;;;;;;;14.52;100.00;101660.00;4993467;28;20398;-75
2023/08/13 02:27:57;;;;;;;;;;;;;;;14.61;100.00;101658.38;4990004;28;19921;-76
2023/08/13 02:30:23;;;;;;;;;;;;;;;14.70;100.00;101662.22;4971808;28;20451;-76
2023/08/13 02:32:48;;;;;;;;;;;;;;;14.76;100.00;101658.13;4987265;28;19976;-76
2023/08/13 02:35:14;;;;;;;;;;;;;;;14.87;100.00;101646.41;4995182;28;19922;-78
2023/08/13 02:37:39;;;;;;;;;;;;;;;14.88;100.00;101651.72;4986589;28;19929;-77
2023/08/13 02:40:06;;;;;;;;;;;;;;;14.95;100.00;101652.94;4988206;28;19921;-78
2023/08/13 02:42:31;;;;;;;;;;;;;;;15.05;100.00;101644.91;4992642;28;19929;-77
2023/08/13 02:44:56;;;;;;;;;;;;;;;15.02;100.00;101645.16;4989403;28;19959;-77
2023/08/13 02:47:22;;;;;;;;;;;;;;;15.08;100.00;101652.75;4989905;28;19921;-78
2023/08/13 02:49:47;;;;;;;;;;;;;;;15.05;100.00;101650.31;4992807;28;19948;-76
2023/08/13 02:52:12;;;;;;;;;;;;;;;15.05;100.00;101638.63;4992110;28;19921;-77
2023/08/13 02:54:37;;;;;;;;;;;;;;;15.03;100.00;101646.00;4972135;28;19971;-77
2023/08/13 02:57:02;;;;;;;;;;;;;;;15.06;100.00;101638.50;4987508;28;20214;-77
2023/08/13 02:59:28;;;;;;;;;;;;;;;15.01;100.00;101643.44;4975654;28;19921;-77
2023/08/13 03:01:53;;;;;;;;;;;;;;;14.89;100.00;101644.44;4975500;28;19925;-77
2023/08/13 03:04:18;;;;;;;;;;;;;;;14.80;100.00;101646.09;4990045;28;19964;-77
2023/08/13 03:06:43;;;;;;;;;;;;;;;14.72;100.00;101651.25;4973380;28;20296;-77
2023/08/13 03:09:09;;;;;;;;;;;;;;;14.66;100.00;101649.91;4979130;28;19914;-77
2023/08/13 03:11:34;;;;;;;;;;;;;;;14.69;100.00;101655.97;4982158;28;19933;-77
2023/08/13 03:14:00;;;;;;;;;;;;;;;14.62;100.00;101657.41;5007411;23;20079;-77
2023/08/13 03:16:25;;;;;;;;;;;;;;;14.59;100.00;101651.38;4996026;28;19925;-77
2023/08/13 03:18:50;;;;;;;;;;;;;;;14.64;100.00;101654.56;5001327;28;19965;-77
2023/08/13 03:21:15;;;;;;;;;;;;;;;14.51;100.00;101646.59;5007577;28;19971;-77
2023/08/13 03:23:40;;;;;;;;;;;;;;;14.43;100.00;101652.66;4998788;28;20039;-77
2023/08/13 03:26:06;;;;;;;;;;;;;;;14.49;100.00;101651.28;4997943;28;19944;-77
2023/08/13 03:28:31;;;;;;;;;;;;;;;14.37;100.00;101656.72;5010354;28;20907;-77
2023/08/13 03:31:00;;;;;;;;;;;;;;;14.31;100.00;101657.19;4998568;28;20036;-77
2023/08/13 03:33:25;;;;;;;;;;;;;;;14.32;100.00;101650.81;4993979;28;20125;-77
2023/08/13 03:35:50;;;;;;;;;;;;;;;14.30;100.00;101650.09;4998531;28;20038;-77
2023/08/13 03:38:15;;;;;;;;;;;;;;;14.20;100.00;101651.78;5011399;28;19948;-77
2023/08/13 03:40:41;;;;;;;;;;;;;;;14.11;100.00;101648.00;5000603;28;19960;-77
2023/08/13 03:43:06;;;;;;;;;;;;;;;13.95;100.00;101648.34;5010332;28;20372;-77
2023/08/13 03:45:31;;;;;;;;;;;;;;;13.78;100.00;101652.38;5011821;28;19933;-77
2023/08/13 03:47:56;;;;;;;;;;;;;;;13.74;100.00;101651.78;4997676;28;19998;-77
2023/08/13 03:50:22;;;;;;;;;;;;;;;13.70;100.00;101653.00;5011884;28;20427;-77
2023/08/13 03:52:47;;;;;;;;;;;;;;;13.73;100.00;101654.63;5012120;28;20351;-77
2023/08/13 03:55:12;;;;;;;;;;;;;;;13.76;100.00;101657.06;5014770;28;19928;-76
2023/08/13 03:57:37;;;;;;;;;;;;;;;13.82;100.00;101655.72;5008540;28;19972;-76
2023/08/13 04:00:03;;;;;;;;;;;;;;;13.91;100.00;101665.78;5013826;28;20051;-77
2023/08/13 04:02:31;;;;;;;;;;;;;;;13.96;100.00;101655.47;5015479;28;19943;-77
2023/08/13 04:04:57;;;;;;;;;;;;;;;13.99;100.00;101657.09;4992315;28;20164;-76
2023/08/13 04:07:22;;;;;;;;;;;;;;;14.07;100.00;101652.78;5015541;28;19925;-77
2023/08/13 04:09:47;;;;;;;;;;;;;;;14.09;100.00;101656.22;5001909;28;20303;-76
2023/08/13 04:12:12;;;;;;;;;;;;;;;14.15;100.00;101654.88;5012298;28;19917;-76
2023/08/13 04:14:37;;;;;;;;;;;;;;;14.16;100.00;101653.91;5009843;28;19968;-76
2023/08/13 04:17:03;;;;;;;;;;;;;;;14.13;100.00;101656.00;5013781;28;20059;-76
2023/08/13 04:19:29;;;;;;;;;;;;;;;14.11;100.00;101661.50;5012677;28;19921;-76
2023/08/13 04:21:54;;;;;;;;;;;;;;;14.04;100.00;101663.84;5015043;28;20306;-76
2023/08/13 04:24:19;;;;;;;;;;;;;;;14.08;100.00;101665.31;5012392;28;19964;-76
2023/08/13 04:26:44;;;;;;;;;;;;;;;14.08;100.00;101665.31;5008697;28;20011;-76
2023/08/13 04:29:09;;;;;;;;;;;;;;;14.02;100.00;101657.69;5016095;28;20427;-76
2023/08/13 04:31:35;;;;;;;;;;;;;;;13.97;100.00;101659.06;5014374;28;19961;-76
2023/08/13 04:34:00;;;;;;;;;;;;;;;13.91;100.00;101660.38;5009326;28;20024;-76
2023/08/13 04:36:25;;;;;;;;;;;;;;;13.88;100.00;101660.66;5011432;28;19931;-76
2023/08/13 04:38:50;;;;;;;;;;;;;;;13.92;100.00;101657.56;5012426;28;19925;-76
2023/08/13 04:41:16;;;;;;;;;;;;;;;14.04;100.00;101665.66;5011816;28;19968;-75
2023/08/13 04:43:41;;;;;;;;;;;;;;;13.96;100.00;101668.97;5014434;28;19921;-75
2023/08/13 04:46:06;;;;;;;;;;;;;;;13.98;100.00;101668.88;5017859;28;19921;-76
2023/08/13 04:48:40;;;;;;;;;;;;;;;13.97;100.00;101668.00;5001351;28;20399;-75
2023/08/13 04:51:06;;;;;;;;;;;;;;;13.95;100.00;101662.72;5029473;28;20668;-76
2023/08/13 04:53:31;;;;;;;;;;;;;;;14.00;100.00;101661.50;4996356;28;19926;-76
2023/08/13 04:55:56;;;;;;;;;;;;;;;14.01;100.00;101664.06;4998538;28;19922;-76
2023/08/13 04:58:21;;;;;;;;;;;;;;;13.97;100.00;101662.59;5009658;28;19930;-76
2023/08/13 05:00:46;;;;;;;;;;;;;;;13.96;100.00;101660.88;5014101;28;19952;-77
2023/08/13 05:03:12;;;;;;;;;;;;;;;14.01;100.00;101668.63;5010253;28;19921;-77
2023/08/13 05:05:37;;;;;;;;;;;;;;;14.05;100.00;101660.16;5007106;28;19921;-76
2023/08/13 05:08:02;;;;;;;;;;;;;;;14.08;100.00;101667.13;5009345;28;19928;-77
2023/08/13 05:10:28;;;;;;;;;;;;;;;14.15;100.00;101662.13;5013893;28;19921;-77
2023/08/13 05:12:53;;;;;;;;;;;;;;;14.21;100.00;101675.13;4997162;28;20469;-78
2023/08/13 05:15:19;;;;;;;;;;;;;;;14.28;100.00;101684.47;4995602;28;20387;-77
2023/08/13 05:17:44;;;;;;;;;;;;;;;14.35;100.00;101674.00;5007892;28;20401;-76
2023/08/13 05:20:10;;;;;;;;;;;;;;;14.45;100.00;101666.88;5003665;28;19932;-80
2023/08/13 05:22:35;;;;;;;;;;;;;;;14.54;100.00;101673.38;5010001;28;19960;-74
2023/08/13 05:25:00;;;;;;;;;;;;;;;14.64;100.00;101670.78;5006346;28;19921;-77
2023/08/13 05:27:25;;;;;;;;;;;;;;;14.65;100.00;101673.38;5010695;28;19920;-76
2023/08/13 05:29:51;;;;;;;;;;;;;;;14.66;100.00;101676.91;5011000;28;19995;-76
2023/08/13 05:32:16;;;;;;;;;;;;;;;14.66;100.00;101682.31;5008688;28;20019;-76
2023/08/13 05:34:42;;;;;;;;;;;;;;;14.61;100.00;101673.72;5009020;28;20326;-77
2023/08/13 05:37:07;;;;;;;;;;;;;;;14.72;100.00;101671.06;5007695;28;19924;-77
2023/08/13 05:39:32;;;;;;;;;;;;;;;14.72;100.00;101679.16;5000223;28;19925;-77
2023/08/13 05:41:57;;;;;;;;;;;;;;;14.68;100.00;101664.16;4995236;28;19931;-74
2023/08/13 05:44:23;;;;;;;;;;;;;;;14.84;100.00;101678.13;5007704;28;19924;-76
2023/08/13 05:46:48;;;;;;;;;;;;;;;14.85;100.00;101670.91;5005925;28;19921;-76
2023/08/13 05:49:13;;;;;;;;;;;;;;;14.90;100.00;101684.91;5006381;28;19940;-74
2023/08/13 05:51:38;;;;;;;;;;;;;;;14.87;100.00;101678.88;5004964;28;19956;-77
2023/08/13 05:54:04;;;;;;;;;;;;;;;14.93;100.00;101689.19;5011999;28;19960;-77
2023/08/13 05:56:29;;;;;;;;;;;;;;;15.01;100.00;101686.69;4993971;28;20279;-77
2023/08/13 05:58:54;;;;;;;;;;;;;;;15.17;100.00;101688.97;5008449;28;20446;-77
2023/08/13 06:01:20;;;;;;;;;;;;;;;15.23;100.00;101690.31;5007722;28;20421;-76
2023/08/13 06:03:45;;;;;;;;;;;;;;;15.35;100.00;101691.13;5006849;28;19914;-75
2023/08/13 06:06:10;;;;;;;;;;;;;;;15.54;100.00;101687.69;5006463;28;20284;-74
2023/08/13 06:08:35;;;;;;;;;;;;;;;15.63;100.00;101691.47;4995160;28;20426;-77
2023/08/13 06:11:01;;;;;;;;;;;;;;;15.71;100.00;101678.97;5008749;28;20442;-75
2023/08/13 06:13:26;;;;;;;;;;;;;;;15.81;100.00;101680.91;4946540;28;1757912;-76
2023/08/13 06:15:51;;;;;;;;;;;;;;;15.79;100.00;101680.16;5010043;28;20322;-76
2023/08/13 06:18:17;;;;;;;;;;;;;;;15.94;100.00;101681.56;4994868;28;20704;-78
2023/08/13 06:20:42;;;;;;;;;;;;;;;16.00;100.00;101681.03;4993869;28;19925;-75
2023/08/13 06:23:07;;;;;;;;;;;;;;;15.95;100.00;101687.84;5007896;28;19921;-80
2023/08/13 06:25:33;;;;;;;;;;;;;;;16.05;100.00;101683.31;5009716;28;20387;-81
2023/08/13 06:27:58;;;;;;;;;;;;;;;16.14;100.00;101679.81;5007285;28;19925;-76
2023/08/13 06:30:24;;;;;;;;;;;;;;;16.23;100.00;101683.56;5004377;28;19997;-77
2023/08/13 06:32:49;;;;;;;;;;;;;;;16.24;100.00;101689.84;4993062;28;20626;-77
2023/08/13 06:35:15;;;;;;;;;;;;;;;16.38;100.00;101686.75;4997563;28;19921;-75
2023/08/13 06:37:40;;;;;;;;;;;;;;;16.53;100.00;101689.09;5009784;28;19933;-78
2023/08/13 06:40:06;;;;;;;;;;;;;;;16.66;100.00;101695.09;5006069;28;20367;-77
2023/08/13 06:42:31;;;;;;;;;;;;;;;16.62;100.00;101678.28;5004677;28;19925;-76
2023/08/13 06:44:56;;;;;;;;;;;;;;;16.93;100.00;101691.75;5006613;28;19951;-73
2023/08/13 06:47:21;;;;;;;;;;;;;;;17.10;100.00;101686.66;5006987;28;19926;-74
2023/08/13 06:49:47;;;;;;;;;;;;;;;17.19;100.00;101690.38;5010999;28;20356;-78
2023/08/13 06:52:12;;;;;;;;;;;;;;;17.09;100.00;101688.50;5009881;28;19925;-77
2023/08/13 06:54:37;;;;;;;;;;;;;;;17.16;100.00;101687.94;5003450;28;19921;-78
2023/08/13 06:57:02;;;;;;;;;;;;;;;17.28;100.00;101683.22;5006236;28;20078;-79
2023/08/13 06:59:27;;;;;;;;;;;;;;;17.51;100.00;101678.34;5003424;28;19969;-72
2023/08/13 07:01:53;;;;;;;;;;;;;;;17.64;100.00;101688.91;5008500;28;19993;-78
2023/08/13 07:04:18;;;;;;;;;;;;;;;17.84;100.00;101687.88;5005917;28;21742;-78
2023/08/13 07:06:43;;;;;;;;;;;;;;;17.82;100.00;101679.00;5009935;28;20012;-79
2023/08/13 07:09:08;;;;;;;;;;;;;;;17.93;100.00;101683.41;5007706;28;20045;-76
2023/08/13 07:11:36;;;;;;;;;;;;;;;17.96;100.00;101677.69;5015045;28;20009;-79
2023/08/13 07:14:03;;;;;;;;;;;;;;;17.96;100.00;101682.25;5018295;28;20191;-77
2023/08/13 07:16:28;;;;;;;;;;;;;;;17.95;100.00;101684.09;5003111;28;19933;-79
2023/08/13 07:18:53;;;;;;;;;;;;;;;18.03;100.00;101677.13;5010444;28;19928;-76
2023/08/13 07:21:18;;;;;;;;;;;;;;;18.12;100.00;101684.41;4988138;28;19921;-77
2023/08/13 07:23:44;;;;;;;;;;;;;;;18.37;100.00;101685.56;5006833;28;19927;-77
2023/08/13 07:26:09;;;;;;;;;;;;;;;18.46;100.00;101675.63;4991846;28;19953;-77
2023/08/13 07:28:35;;;;;;;;;;;;;;;18.53;100.00;101676.75;4992537;28;20011;-76
2023/08/13 07:31:03;;;;;;;;;;;;;;;18.58;100.00;101670.84;5001508;28;19932;-78
2023/08/13 07:33:29;;;;;;;;;;;;;;;18.69;100.00;101683.38;5008666;28;19929;-77
2023/08/13 07:35:54;;;;;;;;;;;;;;;18.97;100.00;101675.19;4993710;28;19927;-76
2023/08/13 07:38:19;;;;;;;;;;;;;;;19.23;100.00;101669.84;5000498;28;20228;-77
2023/08/13 07:40:44;;;;;;;;;;;;;;;19.36;100.00;101671.28;5003403;28;19963;-78
2023/08/13 07:43:10;;;;;;;;;;;;;;;19.34;100.00;101671.47;4984842;28;19944;-76
2023/08/13 07:45:35;;;;;;;;;;;;;;;19.45;100.00;101682.13;5015207;28;19920;-76
2023/08/13 07:48:00;;;;;;;;;;;;;;;19.46;100.00;101674.78;4999015;28;20079;-77
2023/08/13 07:50:25;;;;;;;;;;;;;;;19.45;100.00;101667.63;5005088;28;19952;-78
2023/08/13 07:52:51;;;;;;;;;;;;;;;19.43;100.00;101672.38;5018735;28;19932;-75
2023/08/13 07:55:16;;;;;;;;;;;;;;;19.58;100.00;101679.00;5007540;28;19992;-75
2023/08/13 07:57:41;;;;;;;;;;;;;;;19.63;100.00;101678.50;4992713;28;20287;-77
2023/08/13 08:00:08;;;;;;;;;;;;;;;19.77;100.00;101674.34;5007849;28;19925;-76
2023/08/13 08:02:33;;;;;;;;;;;;;;;19.87;100.00;101668.78;5006368;28;19921;-74
2023/08/13 08:04:58;;;;;;;;;;;;;;;19.88;100.00;101665.06;5007256;28;19959;-73
2023/08/13 08:07:25;;;;;;;;;;;;;;;20.10;100.00;101665.53;5008404;28;19919;-74
2023/08/13 08:09:50;;;;;;;;;;;;;;;20.38;100.00;101668.91;4995786;28;20280;-74
2023/08/13 08:12:15;;;;;;;;;;;;;;;20.65;100.00;101672.41;5009245;28;19944;-75
2023/08/13 08:14:41;;;;;;;;;;;;;;;20.57;100.00;101669.66;5004953;28;19933;-77
2023/08/13 08:17:07;;;;;;;;;;;;;;;20.77;100.00;101665.66;4992192;28;19926;-77
2023/08/13 08:19:32;;;;;;;;;;;;;;;20.98;100.00;101662.44;4982739;28;19977;-77
2023/08/13 08:21:58;;;;;;;;;;;;;;;20.99;100.00;101657.84;4990175;28;20076;-77
2023/08/13 08:24:23;;;;;;;;;;;;;;;20.79;100.00;101652.69;5005893;28;19925;-79
2023/08/13 08:26:49;;;;;;;;;;;;;;;20.79;100.00;101647.22;5007057;28;19941;-77
2023/08/13 08:29:14;;;;;;;;;;;;;;;21.04;100.00;101651.88;4988174;28;20000;-72
2023/08/13 08:31:39;;;;;;;;;;;;;;;21.34;100.00;101654.94;4996849;28;20275;-80
2023/08/13 08:34:04;;;;;;;;;;;;;;;21.43;100.00;101649.31;5005889;28;20303;-77
2023/08/13 08:36:29;;;;;;;;;;;;;;;20.93;100.00;101653.91;4985129;28;19959;-77
2023/08/13 08:38:55;;;;;;;;;;;;;;;21.10;100.00;101649.31;5002639;28;19986;-74
2023/08/13 08:41:20;;;;;;;;;;;;;;;21.23;100.00;101651.53;4990899;28;19922;-75
2023/08/13 08:43:45;;;;;;;;;;;;;;;21.33;100.00;101654.09;5002820;28;20402;-79
2023/08/13 08:46:11;;;;;;;;;;;;;;;21.32;100.00;101655.13;4991276;28;20253;-75
2023/08/13 08:48:36;;;;;;;;;;;;;;;20.85;100.00;101658.50;5006344;28;20382;-79
2023/08/13 08:51:01;;;;;;;;;;;;;;;20.64;100.00;101652.44;4990294;28;19936;-74
2023/08/13 08:53:26;;;;;;;;;;;;;;;20.54;100.00;101654.47;4972306;28;19957;-77
2023/08/13 08:55:52;;;;;;;;;;;;;;;20.97;100.00;101646.22;4988748;28;20035;-79
2023/08/13 08:58:17;;;;;;;;;;;;;;;20.93;100.00;101655.78;4987420;28;19990;-77
2023/08/13 09:00:43;;;;;;;;;;;;;;;20.92;100.00;101652.19;4985149;28;19932;-74
2023/08/13 09:03:08;;;;;;;;;;;;;;;20.91;100.00;101653.22;4990341;28;19928;-77
2023/08/13 09:05:33;;;;;;;;;;;;;;;20.63;100.00;101653.47;4985997;28;19929;-80
2023/08/13 09:07:58;;;;;;;;;;;;;;;20.77;100.00;101648.44;5007367;28;19922;-76
2023/08/13 09:10:23;;;;;;;;;;;;;;;20.61;100.00;101654.66;5003938;28;19977;-75
2023/08/13 09:12:49;;;;;;;;;;;;;;;20.71;100.00;101644.44;4987990;28;19921;-78
2023/08/13 09:15:14;;;;;;;;;;;;;;;20.72;100.00;101646.16;5011276;28;19929;-75
2023/08/13 09:17:40;;;;;;;;;;;;;;;20.83;100.00;101647.75;4987162;28;19969;-74
2023/08/13 09:20:16;;;;;;;;;;;;;;;20.64;100.00;101646.16;5004971;28;20429;-74
2023/08/13 09:22:43;;;;;;;;;;;;;;;20.57;100.00;101637.75;4985215;28;20042;-76
2023/08/13 09:25:08;;;;;;;;;;;;;;;20.63;100.00;101637.09;5002552;28;19924;-76
2023/08/13 09:27:33;;;;;;;;;;;;;;;20.73;100.00;101634.22;4985567;28;19918;-77
2023/08/13 09:29:59;;;;;;;;;;;;;;;20.88;100.00;101631.72;4995942;28;19964;-74
2023/08/13 09:32:26;;;;;;;;;;;;;;;20.98;100.00;101628.81;4990310;28;19921;-74
2023/08/13 09:34:52;;;;;;;;;;;;;;;20.98;100.00;101626.09;4994916;28;19925;-76
2023/08/13 09:37:17;;;;;;;;;;;;;;;21.31;100.00;101615.19;5000339;28;19968;-79
2023/08/13 09:39:43;;;;;;;;;;;;;;;21.38;100.00;101613.47;4994265;28;19975;-74
2023/08/13 09:42:08;;;;;;;;;;;;;;;21.72;100.00;101614.28;4992702;28;20028;-74
2023/08/13 09:44:33;;;;;;;;;;;;;;;21.71;100.00;101612.59;4999655;28;19929;-75
2023/08/13 09:46:59;;;;;;;;;;;;;;;21.75;100.00;101613.06;5009506;28;19914;-77
2023/08/13 09:49:26;;;;;;;;;;;;;;;21.94;100.00;101615.44;5012875;28;19928;-76
2023/08/13 09:51:52;;;;;;;;;;;;;;;21.71;100.00;101609.84;5002198;28;19925;-75
2023/08/13 09:54:28;;;;;;;;;;;;;;;21.68;100.00;101602.88;5009845;28;19921;-79
2023/08/13 09:56:55;;;;;;;;;;;;;;;21.88;100.00;101602.47;5009288;28;19925;-77
2023/08/13 09:59:21;;;;;;;;;;;;;;;21.78;100.00;101594.47;5018071;28;19998;-75
2023/08/13 10:01:46;;;;;;;;;;;;;;;21.88;100.00;101595.09;4992789;28;20020;-74
2023/08/13 10:04:11;;;;;;;;;;;;;;;21.85;100.00;101586.41;4990979;28;19921;-72
2023/08/13 10:06:36;;;;;;;;;;;;;;;21.81;100.00;101585.94;5002454;28;20226;-76
2023/08/13 10:09:02;;;;;;;;;;;;;;;21.69;100.00;101595.50;4990383;28;19921;-77
2023/08/13 10:11:27;;;;;;;;;;;;;;;21.71;100.00;101588.88;5008585;28;19921;-75
2023/08/13 10:13:52;;;;;;;;;;;;;;;21.82;100.00;101584.91;4991987;28;19963;-78
2023/08/13 10:16:18;;;;;;;;;;;;;;;22.39;100.00;101580.16;5009213;28;19926;-74
2023/08/13 10:18:45;;;;;;;;;;;;;;;22.55;100.00;101576.50;5005431;28;19925;-74
2023/08/13 10:21:11;;;;;;;;;;;;;;;22.76;100.00;101584.06;4991430;28;19932;-75
2023/08/13 10:23:37;;;;;;;;;;;;;;;22.75;100.00;101585.09;5008995;28;19983;-75
2023/08/13 10:26:02;;;;;;;;;;;;;;;22.68;100.00;101581.38;5000296;28;20464;-75
2023/08/13 10:28:28;;;;;;;;;;;;;;;22.36;100.00;101583.28;4990232;28;20405;-75
2023/08/13 10:31:12;;;;;;;;;;;;;;;22.31;100.00;101582.97;5007517;28;19972;-77
2023/08/13 10:33:37;;;;;;;;;;;;;;;22.65;100.00;101586.38;4991713;28;19928;-77
2023/08/13 10:36:03;;;;;;;;;;;;;;;22.52;100.00;101576.03;4975337;28;19917;-76
2023/08/13 10:38:33;;;;;;;;;;;;;;;22.40;100.00;101581.03;5004408;28;19929;-76
2023/08/13 10:40:58;;;;;;;;;;;;;;;22.53;100.00;101573.09;4984911;28;20107;-76
2023/08/13 10:43:24;;;;;;;;;;;;;;;22.56;100.00;101580.94;4992471;28;19925;-78
2023/08/13 10:45:49;;;;;;;;;;;;;;;22.15;100.00;101575.69;5006719;28;20011;-79
2023/08/13 10:48:14;;;;;;;;;;;;;;;22.29;100.00;101569.44;4985774;28;20024;-78
2023/08/13 10:50:39;;;;;;;;;;;;;;;22.53;100.00;101575.00;4991036;28;19926;-76
2023/08/13 10:53:11;;;;;;;;;;;;;;;22.69;100.00;101572.13;5007032;28;19925;-77
2023/08/13 10:55:46;;;;;;;;;;;;;;;22.40;100.00;101568.19;4987775;28;20009;-77
2023/08/13 10:58:27;;;;;;;;;;;;;;;22.37;100.00;101565.84;5003576;28;20522;-75
2023/08/13 11:01:12;;;;;;;;;;;;;;;22.49;100.00;101568.19;4986121;28;22328;-78
2023/08/13 11:03:44;;;;;;;;;;;;;;;22.46;100.00;101567.50;4983632;28;19921;-78
2023/08/13 11:06:10;;;;;;;;;;;;;;;23.43;100.00;101556.13;4993156;28;20364;-79
2023/08/13 11:08:36;;;;;;;;;;;;;;;24.23;100.00;101557.19;5004080;28;19964;-78
2023/08/13 11:11:01;;;;;;;;;;;;;;;23.97;95.44;101554.97;4992417;28;19968;-77
2023/08/13 11:13:26;;;;;;;;;;;;;;;24.43;100.00;101562.09;4984935;28;19914;-78
2023/08/13 11:15:52;;;;;;;;;;;;;;;24.87;89.22;101552.00;5006487;28;19933;-78
2023/08/13 11:18:17;;;;;;;;;;;;;;;25.29;88.24;101550.19;4985651;28;19933;-75
2023/08/13 11:20:44;;;;;;;;;;;;;;;24.92;86.39;101560.47;4989531;28;19928;-76
2023/08/13 11:23:09;;;;;;;;;;;;;;;23.99;91.10;101563.03;4987259;28;19933;-76
2023/08/13 11:25:35;;;;;;;;;;;;;;;23.57;91.22;101554.44;5006354;28;19928;-74
2023/08/13 11:28:00;;;;;;;;;;;;;;;23.60;96.62;101556.78;5002680;28;19999;-75
2023/08/13 11:30:26;;;;;;;;;;;;;;;24.03;89.62;101558.84;4992541;28;19921;-77
2023/08/13 11:32:52;;;;;;;;;;;;;;;23.62;90.29;101557.44;5006885;28;19921;-79
2023/08/13 11:35:17;;;;;;;;;;;;;;;23.50;92.02;101555.19;4990801;28;20421;-74
2023/08/13 11:37:42;;;;;;;;;;;;;;;24.01;89.15;101558.19;4991956;28;20235;-73
2023/08/13 11:40:10;;;;;;;;;;;;;;;24.30;86.53;101556.44;4979097;28;20033;-76
2023/08/13 11:42:36;;;;;;;;;;;;;;;24.74;89.18;101560.97;4994748;28;19917;-77
2023/08/13 11:45:09;;;;;;;;;;;;;;;24.55;83.52;101551.44;4986496;28;19960;-76
2023/08/13 11:47:35;;;;;;;;;;;;;;;24.07;85.33;101549.22;4988490;28;19918;-77
2023/08/13 11:50:00;;;;;;;;;;;;;;;24.16;88.90;101549.94;5009244;28;19967;-79
2023/08/13 11:52:25;;;;;;;;;;;;;;;23.72;86.37;101548.94;5009135;28;20020;-76
2023/08/13 11:54:51;;;;;;;;;;;;;;;23.94;92.08;101547.97;4990798;28;19921;-77
2023/08/13 11:57:17;;;;;;;;;;;;;;;23.23;87.49;101555.81;4997799;28;19925;-74
2023/08/13 11:59:44;;;;;;;;;;;;;;;23.21;92.64;101551.38;5009689;28;19963;-76
2023/08/13 12:02:09;;;;;;;;;;;;;;;23.56;90.63;101539.88;4991822;28;19925;-75
2023/08/13 12:04:34;;;;;;;;;;;;;;;23.03;94.52;101550.84;4991578;28;19922;-75
2023/08/13 12:07:02;;;;;;;;;;;;;;;22.73;96.84;101540.63;4972666;28;19943;-75
2023/08/13 12:09:27;;;;;;;;;;;;;;;22.91;92.83;101540.31;4994176;28;19921;-77
2023/08/13 12:11:52;;;;;;;;;;;;;;;22.98;99.01;101554.13;5010115;28;19932;-80
2023/08/13 12:14:18;;;;;;;;;;;;;;;23.01;98.13;101537.31;5010073;28;19925;-75
2023/08/13 12:16:43;;;;;;;;;;;;;;;23.26;94.94;101536.28;4996933;28;19925;-74
2023/08/13 12:19:08;;;;;;;;;;;;;;;23.67;93.16;101531.19;5011605;28;19994;-78
2023/08/13 12:21:34;;;;;;;;;;;;;;;23.43;86.19;101535.03;4995774;28;20408;-75